Napo, China
Current Conditions -  °F | °C
As of 2:00 PM on Thursday 29 Jan 2015 (Local Time) from ZGNN Reporting Station
Broken Clouds Broken Clouds  
Wind Chill: 70°   Ceiling: 2000
Heat Index: 70°   Visibility: 6mi
Dew Point: 63°   Wind: 13mph
Humidity: 78%   Direction: 130°SE
Pressure: 30"   Gusts: NA
Location:  23.3°N, 105.95°E
Report Text: ZGNN 290600Z 13006MPS 9999 BKN020 BKN040 21/17 Q1016 NOSIG
Loading
Personal Weather Stations






























Interactive Weather Map New forecast layout! Learn more

10-Day Weather Forecast

Advertisements
Track Severe Weather on mobile